Terminal Aerodrome Forecast
Issued by NWS Norman, OK

Home | Current Version | Previous Version | Text Only | Print | Product List | Glossary On
Versions: 1 2 3 4 5 6 7 8 9 10 11 12 13 14 15 16 17 18 19 20 21 22 23 24 25 26 27 28
000
FTUS44 KOUN 292323
TAFOKC
TAF
KOKC 292323Z 3000/3024 25010KT P6SM BKN100
     FM300300 16008KT P6SM BKN100
     FM301200 10008G15KT 5SM -RA SCT015 OVC040
      TEMPO 3015/3018 3SM RA OVC015=

USA.gov is the U.S. government's official web portal to all federal, state and local government web resources and services.